Tropical Cyclones
[Index]
Main Index Home Page Stock Weather Photos Extreme Storms Discussion Storm News and Storm Chasing Reports Tropical Cyclones / Hurricanes / Typhoons Weather Data and Links Wild Fires / Bushfires Weather Observation Techniques Weather Picture Catalogue Tornado Pictures and Reports Stock Video Footage and DVDs for sale
Season 1982-1983 Tropical Cyclone KINA Track Map
Season 1982-1983 Summaries: [BoM-AU] [JTWC-AU] [JTWC-SIO] [JTWC-SPAC] [JTWC-SH]
<<- Previous TC | JTWC 1982-1983 Season | Next TC ->>

click for intensity scale information  Lat/long Grid: Show Hide

 Date Labels: Show Hide

Joint Typhoon Warning Centre Cyclone Data

Name: KINA

07 Nov 1982 18:00 UTC to 13 Nov 1982 06:00 UTC

    date/time    lat    long     hPa   cat  kts
1982-11-07 18   10.8   178.8                  20          
1982-11-08 00   10.9   177.9                  25          
1982-11-08 06   10.9   177.1                  25          
1982-11-08 12   10.9   176.3                  25          
1982-11-08 18   10.9   175.5                  25          
1982-11-09 00   11.0   174.8                  25          
1982-11-09 06   11.2   174.1                  30          
1982-11-09 12   11.5   173.6                  30          
1982-11-09 18   11.8   173.1                  35          
1982-11-10 00   12.0   172.7                  35          
1982-11-10 06   12.3   172.3            1     40          
1982-11-10 12   12.6   172.1            1     40          
1982-11-10 18   12.9   172.0                  35          
1982-11-11 00   13.2   172.1                  35          
1982-11-11 06   13.4   172.3                  35          
1982-11-11 12   13.6   172.7                  35          
1982-11-11 18   13.7   173.0                  30          
1982-11-12 00   14.0   173.4                  30          
1982-11-12 06   14.5   173.7                  30          
1982-11-12 12   15.1   174.0                  30          
1982-11-12 18   15.8   174.2                  25          
1982-11-13 00   16.6   174.3                  25          
1982-11-13 06   17.4   174.2                  25          
Winds are 1-min average.

Tropical cyclone tracks developed by Michael Bath using data from the Joint Typhoon Warning Centre Best Tracks and Google Maps.


[Australian Severe Weather index] [Copyright Notice] [Email Contacts] [Search This Site] [Privacy Policy]
Document: tropical_cyclone_kina.htm Updated: 18 September 2016